sensor_id;sensor_type;location;lat;lon;timestamp;P1;durP1;ratioP1;P2;durP2;ratioP2
64678;SDS011;51094;53.864;27.676;2023-06-10T00:00:44;1.00;;;1.00;;
64678;SDS011;51094;53.864;27.676;2023-06-10T00:03:11;1.20;;;1.20;;
64678;SDS011;51094;53.864;27.676;2023-06-10T00:05:39;1.30;;;1.30;;
64678;SDS011;51094;53.864;27.676;2023-06-10T00:08:06;1.00;;;1.00;;
64678;SDS011;51094;53.864;27.676;2023-06-10T00:10:37;1.30;;;1.30;;
64678;SDS011;51094;53.864;27.676;2023-06-10T00:13:05;1.10;;;1.10;;
64678;SDS011;51094;53.864;27.676;2023-06-10T00:15:37;1.30;;;1.30;;
64678;SDS011;51094;53.864;27.676;2023-06-10T00:18:05;1.10;;;1.10;;
64678;SDS011;51094;53.864;27.676;2023-06-10T00:20:32;1.15;;;1.15;;
64678;SDS011;51094;53.864;27.676;2023-06-10T00:22:59;1.02;;;1.02;;
64678;SDS011;51094;53.864;27.676;2023-06-10T00:25:28;1.20;;;1.20;;
64678;SDS011;51094;53.864;27.676;2023-06-10T00:27:55;1.17;;;1.17;;
64678;SDS011;51094;53.864;27.676;2023-06-10T00:30:22;1.00;;;1.00;;
64678;SDS011;51094;53.864;27.676;2023-06-10T00:32:49;1.08;;;1.08;;
64678;SDS011;51094;53.864;27.676;2023-06-10T00:35:16;1.15;;;1.15;;
64678;SDS011;51094;53.864;27.676;2023-06-10T00:37:43;1.05;;;1.05;;
64678;SDS011;51094;53.864;27.676;2023-06-10T00:40:10;1.20;;;1.20;;
64678;SDS011;51094;53.864;27.676;2023-06-10T00:42:37;0.90;;;0.90;;
64678;SDS011;51094;53.864;27.676;2023-06-10T00:45:05;0.90;;;0.90;;
64678;SDS011;51094;53.864;27.676;2023-06-10T00:47:35;1.10;;;1.10;;
64678;SDS011;51094;53.864;27.676;2023-06-10T00:50:02;1.10;;;1.10;;
64678;SDS011;51094;53.864;27.676;2023-06-10T00:52:31;1.08;;;1.08;;
64678;SDS011;51094;53.864;27.676;2023-06-10T00:54:58;1.10;;;1.10;;
64678;SDS011;51094;53.864;27.676;2023-06-10T00:57:26;1.00;;;1.00;;
64678;SDS011;51094;53.864;27.676;2023-06-10T00:59:53;0.93;;;0.93;;
64678;SDS011;51094;53.864;27.676;2023-06-10T01:02:21;1.00;;;1.00;;
64678;SDS011;51094;53.864;27.676;2023-06-10T01:04:48;1.10;;;1.10;;
64678;SDS011;51094;53.864;27.676;2023-06-10T01:07:26;1.00;;;1.00;;
64678;SDS011;51094;53.864;27.676;2023-06-10T01:12:32;0.90;;;0.90;;
64678;SDS011;51094;53.864;27.676;2023-06-10T01:15:04;1.05;;;1.05;;
64678;SDS011;51094;53.864;27.676;2023-06-10T01:17:32;1.27;;;1.27;;
64678;SDS011;51094;53.864;27.676;2023-06-10T01:20:00;0.90;;;0.90;;
64678;SDS011;51094;53.864;27.676;2023-06-10T01:22:30;1.00;;;1.00;;
64678;SDS011;51094;53.864;27.676;2023-06-10T01:25:03;1.00;;;1.00;;
64678;SDS011;51094;53.864;27.676;2023-06-10T01:27:32;0.95;;;0.95;;
64678;SDS011;51094;53.864;27.676;2023-06-10T01:30:14;0.90;;;0.90;;
64678;SDS011;51094;53.864;27.676;2023-06-10T01:32:45;0.90;;;0.90;;
64678;SDS011;51094;53.864;27.676;2023-06-10T01:35:15;0.90;;;0.90;;
64678;SDS011;51094;53.864;27.676;2023-06-10T01:37:45;0.90;;;0.90;;
64678;SDS011;51094;53.864;27.676;2023-06-10T01:40:13;0.90;;;0.90;;
64678;SDS011;51094;53.864;27.676;2023-06-10T01:42:41;0.90;;;0.90;;
64678;SDS011;51094;53.864;27.676;2023-06-10T01:45:09;0.80;;;0.80;;
64678;SDS011;51094;53.864;27.676;2023-06-10T01:47:36;0.90;;;0.90;;
64678;SDS011;51094;53.864;27.676;2023-06-10T01:50:03;0.90;;;0.90;;
64678;SDS011;51094;53.864;27.676;2023-06-10T01:52:31;1.02;;;1.02;;
64678;SDS011;51094;53.864;27.676;2023-06-10T01:54:57;0.90;;;0.90;;
64678;SDS011;51094;53.864;27.676;2023-06-10T01:57:24;0.88;;;0.88;;
64678;SDS011;51094;53.864;27.676;2023-06-10T01:59:52;0.88;;;0.88;;
64678;SDS011;51094;53.864;27.676;2023-06-10T02:02:19;0.80;;;0.80;;
64678;SDS011;51094;53.864;27.676;2023-06-10T02:04:48;0.93;;;0.93;;
64678;SDS011;51094;53.864;27.676;2023-06-10T02:07:16;0.90;;;0.90;;
64678;SDS011;51094;53.864;27.676;2023-06-10T02:09:42;0.88;;;0.88;;
64678;SDS011;51094;53.864;27.676;2023-06-10T02:12:09;0.82;;;0.82;;
64678;SDS011;51094;53.864;27.676;2023-06-10T02:14:37;0.80;;;0.80;;
64678;SDS011;51094;53.864;27.676;2023-06-10T02:17:04;0.80;;;0.80;;
64678;SDS011;51094;53.864;27.676;2023-06-10T02:19:31;0.70;;;0.70;;
64678;SDS011;51094;53.864;27.676;2023-06-10T02:21:58;0.70;;;0.70;;
64678;SDS011;51094;53.864;27.676;2023-06-10T02:24:24;0.82;;;0.82;;
64678;SDS011;51094;53.864;27.676;2023-06-10T02:26:52;0.80;;;0.80;;
64678;SDS011;51094;53.864;27.676;2023-06-10T02:29:21;0.80;;;0.80;;
64678;SDS011;51094;53.864;27.676;2023-06-10T02:31:48;0.80;;;0.80;;
64678;SDS011;51094;53.864;27.676;2023-06-10T02:34:15;0.80;;;0.80;;
64678;SDS011;51094;53.864;27.676;2023-06-10T02:36:42;0.80;;;0.80;;
64678;SDS011;51094;53.864;27.676;2023-06-10T02:39:09;0.73;;;0.73;;
64678;SDS011;51094;53.864;27.676;2023-06-10T02:41:36;0.90;;;0.90;;
64678;SDS011;51094;53.864;27.676;2023-06-10T02:44:04;0.90;;;0.90;;
64678;SDS011;51094;53.864;27.676;2023-06-10T02:46:32;0.77;;;0.77;;
64678;SDS011;51094;53.864;27.676;2023-06-10T02:48:59;0.75;;;0.75;;
64678;SDS011;51094;53.864;27.676;2023-06-10T02:51:27;0.70;;;0.70;;
64678;SDS011;51094;53.864;27.676;2023-06-10T02:53:59;0.70;;;0.70;;
64678;SDS011;51094;53.864;27.676;2023-06-10T02:56:26;0.90;;;0.90;;
64678;SDS011;51094;53.864;27.676;2023-06-10T03:01:24;0.80;;;0.80;;
64678;SDS011;51094;53.864;27.676;2023-06-10T03:04:00;0.77;;;0.77;;
64678;SDS011;51094;53.864;27.676;2023-06-10T03:06:27;0.70;;;0.70;;
64678;SDS011;51094;53.864;27.676;2023-06-10T03:09:04;0.80;;;0.80;;
64678;SDS011;51094;53.864;27.676;2023-06-10T03:11:32;0.70;;;0.70;;
64678;SDS011;51094;53.864;27.676;2023-06-10T03:13:59;0.82;;;0.82;;
64678;SDS011;51094;53.864;27.676;2023-06-10T03:16:28;0.80;;;0.80;;
64678;SDS011;51094;53.864;27.676;2023-06-10T03:18:57;0.73;;;0.73;;
64678;SDS011;51094;53.864;27.676;2023-06-10T03:21:25;0.80;;;0.80;;
64678;SDS011;51094;53.864;27.676;2023-06-10T03:23:55;0.70;;;0.70;;
64678;SDS011;51094;53.864;27.676;2023-06-10T03:26:22;0.70;;;0.70;;
64678;SDS011;51094;53.864;27.676;2023-06-10T03:28:50;0.63;;;0.63;;
64678;SDS011;51094;53.864;27.676;2023-06-10T03:31:18;0.80;;;0.80;;
64678;SDS011;51094;53.864;27.676;2023-06-10T03:33:46;0.65;;;0.65;;
64678;SDS011;51094;53.864;27.676;2023-06-10T03:36:12;0.70;;;0.70;;
64678;SDS011;51094;53.864;27.676;2023-06-10T03:38:39;0.70;;;0.70;;
64678;SDS011;51094;53.864;27.676;2023-06-10T03:41:07;0.70;;;0.70;;
64678;SDS011;51094;53.864;27.676;2023-06-10T03:43:35;0.77;;;0.77;;
64678;SDS011;51094;53.864;27.676;2023-06-10T03:46:05;0.70;;;0.70;;
64678;SDS011;51094;53.864;27.676;2023-06-10T03:48:32;0.75;;;0.75;;
64678;SDS011;51094;53.864;27.676;2023-06-10T03:50:59;0.65;;;0.65;;
64678;SDS011;51094;53.864;27.676;2023-06-10T03:53:27;0.60;;;0.60;;
64678;SDS011;51094;53.864;27.676;2023-06-10T03:55:54;0.70;;;0.70;;
64678;SDS011;51094;53.864;27.676;2023-06-10T03:58:23;0.60;;;0.60;;
64678;SDS011;51094;53.864;27.676;2023-06-10T04:00:50;0.70;;;0.70;;
64678;SDS011;51094;53.864;27.676;2023-06-10T04:03:17;0.80;;;0.80;;
64678;SDS011;51094;53.864;27.676;2023-06-10T04:05:46;0.80;;;0.80;;
64678;SDS011;51094;53.864;27.676;2023-06-10T04:08:13;0.70;;;0.70;;
64678;SDS011;51094;53.864;27.676;2023-06-10T04:10:41;0.68;;;0.68;;
64678;SDS011;51094;53.864;27.676;2023-06-10T04:13:09;0.70;;;0.70;;
64678;SDS011;51094;53.864;27.676;2023-06-10T04:15:43;0.70;;;0.70;;
64678;SDS011;51094;53.864;27.676;2023-06-10T04:18:14;0.70;;;0.70;;
64678;SDS011;51094;53.864;27.676;2023-06-10T04:20:43;0.60;;;0.60;;
64678;SDS011;51094;53.864;27.676;2023-06-10T04:23:12;0.75;;;0.75;;
64678;SDS011;51094;53.864;27.676;2023-06-10T04:25:42;0.70;;;0.70;;
64678;SDS011;51094;53.864;27.676;2023-06-10T04:28:11;0.80;;;0.80;;
64678;SDS011;51094;53.864;27.676;2023-06-10T04:30:38;0.75;;;0.75;;
64678;SDS011;51094;53.864;27.676;2023-06-10T04:33:05;0.80;;;0.80;;
64678;SDS011;51094;53.864;27.676;2023-06-10T04:35:33;0.80;;;0.80;;
64678;SDS011;51094;53.864;27.676;2023-06-10T04:38:02;0.80;;;0.80;;
64678;SDS011;51094;53.864;27.676;2023-06-10T04:40:30;0.80;;;0.80;;
64678;SDS011;51094;53.864;27.676;2023-06-10T04:42:57;0.80;;;0.80;;
64678;SDS011;51094;53.864;27.676;2023-06-10T04:45:25;0.65;;;0.65;;
64678;SDS011;51094;53.864;27.676;2023-06-10T04:47:52;0.80;;;0.80;;
64678;SDS011;51094;53.864;27.676;2023-06-10T04:52:49;0.68;;;0.68;;
64678;SDS011;51094;53.864;27.676;2023-06-10T04:55:16;0.68;;;0.68;;
64678;SDS011;51094;53.864;27.676;2023-06-10T04:57:43;0.63;;;0.63;;
64678;SDS011;51094;53.864;27.676;2023-06-10T05:00:10;0.73;;;0.73;;
64678;SDS011;51094;53.864;27.676;2023-06-10T05:02:37;0.70;;;0.70;;
64678;SDS011;51094;53.864;27.676;2023-06-10T05:05:04;0.95;;;0.95;;
64678;SDS011;51094;53.864;27.676;2023-06-10T05:07:33;0.80;;;0.80;;
64678;SDS011;51094;53.864;27.676;2023-06-10T05:10:00;0.90;;;0.90;;
64678;SDS011;51094;53.864;27.676;2023-06-10T05:12:28;0.80;;;0.80;;
64678;SDS011;51094;53.864;27.676;2023-06-10T05:14:55;0.80;;;0.80;;
64678;SDS011;51094;53.864;27.676;2023-06-10T05:17:23;0.80;;;0.80;;
64678;SDS011;51094;53.864;27.676;2023-06-10T05:19:51;0.88;;;0.88;;
64678;SDS011;51094;53.864;27.676;2023-06-10T05:22:19;0.95;;;0.95;;
64678;SDS011;51094;53.864;27.676;2023-06-10T05:24:46;1.00;;;1.00;;
64678;SDS011;51094;53.864;27.676;2023-06-10T05:27:13;1.20;;;1.20;;
64678;SDS011;51094;53.864;27.676;2023-06-10T05:29:40;0.90;;;0.90;;
64678;SDS011;51094;53.864;27.676;2023-06-10T05:32:07;0.90;;;0.90;;
64678;SDS011;51094;53.864;27.676;2023-06-10T05:34:34;0.90;;;0.90;;
64678;SDS011;51094;53.864;27.676;2023-06-10T05:37:01;0.90;;;0.90;;
64678;SDS011;51094;53.864;27.676;2023-06-10T05:39:29;0.82;;;0.82;;
64678;SDS011;51094;53.864;27.676;2023-06-10T05:41:56;0.95;;;0.95;;
64678;SDS011;51094;53.864;27.676;2023-06-10T05:46:53;0.90;;;0.90;;
64678;SDS011;51094;53.864;27.676;2023-06-10T05:49:20;1.02;;;1.02;;
64678;SDS011;51094;53.864;27.676;2023-06-10T05:51:48;0.98;;;0.98;;
64678;SDS011;51094;53.864;27.676;2023-06-10T05:54:15;0.90;;;0.90;;
64678;SDS011;51094;53.864;27.676;2023-06-10T05:56:42;0.90;;;0.90;;
64678;SDS011;51094;53.864;27.676;2023-06-10T05:59:10;1.10;;;1.10;;
64678;SDS011;51094;53.864;27.676;2023-06-10T06:01:43;1.00;;;1.00;;
64678;SDS011;51094;53.864;27.676;2023-06-10T06:04:10;0.90;;;0.90;;
64678;SDS011;51094;53.864;27.676;2023-06-10T06:06:38;0.82;;;0.82;;
64678;SDS011;51094;53.864;27.676;2023-06-10T06:09:16;0.90;;;0.90;;
64678;SDS011;51094;53.864;27.676;2023-06-10T06:14:42;0.93;;;0.93;;
64678;SDS011;51094;53.864;27.676;2023-06-10T06:17:30;0.90;;;0.90;;
64678;SDS011;51094;53.864;27.676;2023-06-10T06:19:57;0.90;;;0.90;;
64678;SDS011;51094;53.864;27.676;2023-06-10T06:22:24;1.00;;;1.00;;
64678;SDS011;51094;53.864;27.676;2023-06-10T06:24:51;0.90;;;0.90;;
64678;SDS011;51094;53.864;27.676;2023-06-10T06:27:19;1.00;;;1.00;;
64678;SDS011;51094;53.864;27.676;2023-06-10T06:29:47;1.10;;;1.10;;
64678;SDS011;51094;53.864;27.676;2023-06-10T06:32:15;1.10;;;1.10;;
64678;SDS011;51094;53.864;27.676;2023-06-10T06:34:42;0.90;;;0.90;;
64678;SDS011;51094;53.864;27.676;2023-06-10T06:37:10;1.10;;;1.10;;
64678;SDS011;51094;53.864;27.676;2023-06-10T06:39:42;0.88;;;0.88;;
64678;SDS011;51094;53.864;27.676;2023-06-10T06:42:12;1.20;;;1.20;;
64678;SDS011;51094;53.864;27.676;2023-06-10T06:44:59;1.20;;;1.20;;
64678;SDS011;51094;53.864;27.676;2023-06-10T06:47:27;0.95;;;0.95;;
64678;SDS011;51094;53.864;27.676;2023-06-10T06:49:54;1.10;;;1.10;;
64678;SDS011;51094;53.864;27.676;2023-06-10T06:52:21;1.00;;;1.00;;
64678;SDS011;51094;53.864;27.676;2023-06-10T06:54:50;1.10;;;1.10;;
64678;SDS011;51094;53.864;27.676;2023-06-10T06:57:17;1.17;;;1.17;;
64678;SDS011;51094;53.864;27.676;2023-06-10T06:59:44;1.00;;;1.00;;
64678;SDS011;51094;53.864;27.676;2023-06-10T07:02:11;1.10;;;1.10;;
64678;SDS011;51094;53.864;27.676;2023-06-10T07:04:38;1.00;;;1.00;;
64678;SDS011;51094;53.864;27.676;2023-06-10T07:07:07;0.90;;;0.90;;
64678;SDS011;51094;53.864;27.676;2023-06-10T07:09:35;0.80;;;0.80;;
64678;SDS011;51094;53.864;27.676;2023-06-10T07:12:02;0.82;;;0.82;;
64678;SDS011;51094;53.864;27.676;2023-06-10T07:14:29;1.00;;;1.00;;
64678;SDS011;51094;53.864;27.676;2023-06-10T07:16:56;0.95;;;0.95;;
64678;SDS011;51094;53.864;27.676;2023-06-10T07:19:24;0.90;;;0.90;;
64678;SDS011;51094;53.864;27.676;2023-06-10T07:21:51;1.00;;;1.00;;
64678;SDS011;51094;53.864;27.676;2023-06-10T07:24:18;0.88;;;0.88;;
64678;SDS011;51094;53.864;27.676;2023-06-10T07:26:47;0.90;;;0.90;;
64678;SDS011;51094;53.864;27.676;2023-06-10T07:29:14;1.00;;;1.00;;
64678;SDS011;51094;53.864;27.676;2023-06-10T07:31:41;1.00;;;1.00;;
64678;SDS011;51094;53.864;27.676;2023-06-10T07:34:09;0.95;;;0.95;;
64678;SDS011;51094;53.864;27.676;2023-06-10T07:36:36;1.00;;;1.00;;
64678;SDS011;51094;53.864;27.676;2023-06-10T07:39:03;1.00;;;1.00;;
64678;SDS011;51094;53.864;27.676;2023-06-10T07:41:31;0.98;;;0.98;;
64678;SDS011;51094;53.864;27.676;2023-06-10T07:43:58;1.10;;;1.10;;
64678;SDS011;51094;53.864;27.676;2023-06-10T07:46:26;1.00;;;1.00;;
64678;SDS011;51094;53.864;27.676;2023-06-10T07:48:54;1.40;;;1.30;;
64678;SDS011;51094;53.864;27.676;2023-06-10T07:51:21;1.30;;;1.20;;
64678;SDS011;51094;53.864;27.676;2023-06-10T07:53:48;1.40;;;1.30;;
64678;SDS011;51094;53.864;27.676;2023-06-10T07:56:15;1.10;;;1.10;;
64678;SDS011;51094;53.864;27.676;2023-06-10T07:58:42;1.00;;;1.00;;
64678;SDS011;51094;53.864;27.676;2023-06-10T08:01:09;1.00;;;1.00;;
64678;SDS011;51094;53.864;27.676;2023-06-10T08:03:36;1.10;;;1.10;;
64678;SDS011;51094;53.864;27.676;2023-06-10T08:06:03;1.08;;;1.08;;
64678;SDS011;51094;53.864;27.676;2023-06-10T08:08:32;1.20;;;1.20;;
64678;SDS011;51094;53.864;27.676;2023-06-10T08:10:59;1.10;;;1.10;;
64678;SDS011;51094;53.864;27.676;2023-06-10T08:13:27;1.00;;;1.00;;
64678;SDS011;51094;53.864;27.676;2023-06-10T08:15:53;1.25;;;1.25;;
64678;SDS011;51094;53.864;27.676;2023-06-10T08:18:21;1.23;;;1.23;;
64678;SDS011;51094;53.864;27.676;2023-06-10T08:20:48;1.10;;;1.10;;
64678;SDS011;51094;53.864;27.676;2023-06-10T08:23:15;1.20;;;1.20;;
64678;SDS011;51094;53.864;27.676;2023-06-10T08:25:42;1.20;;;1.20;;
64678;SDS011;51094;53.864;27.676;2023-06-10T08:28:09;1.20;;;1.20;;
64678;SDS011;51094;53.864;27.676;2023-06-10T08:30:36;1.13;;;1.13;;
64678;SDS011;51094;53.864;27.676;2023-06-10T08:33:03;1.15;;;1.15;;
64678;SDS011;51094;53.864;27.676;2023-06-10T08:35:30;1.10;;;1.10;;
64678;SDS011;51094;53.864;27.676;2023-06-10T08:37:57;1.10;;;1.10;;
64678;SDS011;51094;53.864;27.676;2023-06-10T08:40:24;1.10;;;1.10;;
64678;SDS011;51094;53.864;27.676;2023-06-10T08:45:29;1.20;;;1.20;;
64678;SDS011;51094;53.864;27.676;2023-06-10T08:47:58;1.30;;;1.30;;
64678;SDS011;51094;53.864;27.676;2023-06-10T08:50:27;1.08;;;1.08;;
64678;SDS011;51094;53.864;27.676;2023-06-10T08:52:57;1.27;;;1.27;;
64678;SDS011;51094;53.864;27.676;2023-06-10T08:55:48;1.08;;;1.08;;
64678;SDS011;51094;53.864;27.676;2023-06-10T08:58:17;1.05;;;1.05;;
64678;SDS011;51094;53.864;27.676;2023-06-10T09:00:46;1.20;;;1.20;;
64678;SDS011;51094;53.864;27.676;2023-06-10T09:03:13;1.42;;;1.35;;
64678;SDS011;51094;53.864;27.676;2023-06-10T09:05:40;1.17;;;1.13;;
64678;SDS011;51094;53.864;27.676;2023-06-10T09:08:09;1.30;;;1.30;;
64678;SDS011;51094;53.864;27.676;2023-06-10T09:10:36;1.13;;;1.13;;
64678;SDS011;51094;53.864;27.676;2023-06-10T09:13:03;1.45;;;1.45;;
64678;SDS011;51094;53.864;27.676;2023-06-10T09:15:30;1.58;;;1.50;;
64678;SDS011;51094;53.864;27.676;2023-06-10T09:17:57;1.20;;;1.20;;
64678;SDS011;51094;53.864;27.676;2023-06-10T09:20:24;1.10;;;1.10;;
64678;SDS011;51094;53.864;27.676;2023-06-10T09:22:53;1.40;;;1.40;;
64678;SDS011;51094;53.864;27.676;2023-06-10T09:25:20;1.15;;;1.15;;
64678;SDS011;51094;53.864;27.676;2023-06-10T09:28:01;0.90;;;0.90;;
64678;SDS011;51094;53.864;27.676;2023-06-10T09:30:30;1.13;;;1.13;;
64678;SDS011;51094;53.864;27.676;2023-06-10T09:33:01;1.20;;;1.10;;
64678;SDS011;51094;53.864;27.676;2023-06-10T09:35:30;1.20;;;1.17;;
64678;SDS011;51094;53.864;27.676;2023-06-10T09:37:58;1.10;;;1.10;;
64678;SDS011;51094;53.864;27.676;2023-06-10T09:40:26;1.10;;;1.10;;
64678;SDS011;51094;53.864;27.676;2023-06-10T09:42:55;1.40;;;1.20;;
64678;SDS011;51094;53.864;27.676;2023-06-10T09:47:55;1.20;;;1.10;;
64678;SDS011;51094;53.864;27.676;2023-06-10T09:50:22;1.10;;;1.10;;
64678;SDS011;51094;53.864;27.676;2023-06-10T09:52:50;1.30;;;1.30;;
64678;SDS011;51094;53.864;27.676;2023-06-10T09:55:18;1.20;;;1.20;;
64678;SDS011;51094;53.864;27.676;2023-06-10T09:57:45;1.05;;;1.05;;
64678;SDS011;51094;53.864;27.676;2023-06-10T10:00:16;1.10;;;1.00;;
64678;SDS011;51094;53.864;27.676;2023-06-10T10:02:45;1.10;;;1.10;;
64678;SDS011;51094;53.864;27.676;2023-06-10T10:05:20;0.90;;;0.90;;
64678;SDS011;51094;53.864;27.676;2023-06-10T10:07:49;1.00;;;1.00;;
64678;SDS011;51094;53.864;27.676;2023-06-10T10:10:17;0.90;;;0.90;;
64678;SDS011;51094;53.864;27.676;2023-06-10T10:12:48;0.80;;;0.80;;
64678;SDS011;51094;53.864;27.676;2023-06-10T10:15:20;1.00;;;1.00;;
64678;SDS011;51094;53.864;27.676;2023-06-10T10:17:50;1.00;;;1.00;;
64678;SDS011;51094;53.864;27.676;2023-06-10T10:20:24;1.05;;;1.05;;
64678;SDS011;51094;53.864;27.676;2023-06-10T10:22:56;1.27;;;1.20;;
64678;SDS011;51094;53.864;27.676;2023-06-10T10:25:34;1.10;;;1.10;;
64678;SDS011;51094;53.864;27.676;2023-06-10T10:28:09;1.10;;;1.10;;
64678;SDS011;51094;53.864;27.676;2023-06-10T10:30:40;1.20;;;1.10;;
64678;SDS011;51094;53.864;27.676;2023-06-10T10:33:22;0.90;;;0.90;;
64678;SDS011;51094;53.864;27.676;2023-06-10T10:35:59;1.00;;;1.00;;
64678;SDS011;51094;53.864;27.676;2023-06-10T10:38:27;1.15;;;1.15;;
64678;SDS011;51094;53.864;27.676;2023-06-10T10:40:55;1.00;;;1.00;;
64678;SDS011;51094;53.864;27.676;2023-06-10T10:43:26;1.02;;;1.02;;
64678;SDS011;51094;53.864;27.676;2023-06-10T10:46:01;0.85;;;0.85;;
64678;SDS011;51094;53.864;27.676;2023-06-10T10:48:33;0.90;;;0.90;;
64678;SDS011;51094;53.864;27.676;2023-06-10T10:51:03;0.90;;;0.90;;
64678;SDS011;51094;53.864;27.676;2023-06-10T10:53:31;0.90;;;0.90;;
64678;SDS011;51094;53.864;27.676;2023-06-10T10:55:58;1.13;;;1.13;;
64678;SDS011;51094;53.864;27.676;2023-06-10T10:58:32;1.00;;;1.00;;
64678;SDS011;51094;53.864;27.676;2023-06-10T11:01:00;1.00;;;1.00;;
64678;SDS011;51094;53.864;27.676;2023-06-10T11:03:42;0.90;;;0.90;;
64678;SDS011;51094;53.864;27.676;2023-06-10T11:06:14;1.00;;;1.00;;
64678;SDS011;51094;53.864;27.676;2023-06-10T11:11:20;0.93;;;0.90;;
64678;SDS011;51094;53.864;27.676;2023-06-10T11:16:37;1.00;;;1.00;;
64678;SDS011;51094;53.864;27.676;2023-06-10T11:19:07;0.90;;;0.90;;
64678;SDS011;51094;53.864;27.676;2023-06-10T11:21:56;1.00;;;1.00;;
64678;SDS011;51094;53.864;27.676;2023-06-10T11:24:25;0.90;;;0.90;;
64678;SDS011;51094;53.864;27.676;2023-06-10T11:26:52;0.98;;;0.98;;
64678;SDS011;51094;53.864;27.676;2023-06-10T11:29:19;0.88;;;0.88;;
64678;SDS011;51094;53.864;27.676;2023-06-10T11:31:50;0.80;;;0.80;;
64678;SDS011;51094;53.864;27.676;2023-06-10T11:34:21;0.85;;;0.85;;
64678;SDS011;51094;53.864;27.676;2023-06-10T11:36:53;0.80;;;0.80;;
64678;SDS011;51094;53.864;27.676;2023-06-10T11:39:20;0.90;;;0.90;;
64678;SDS011;51094;53.864;27.676;2023-06-10T11:41:51;0.80;;;0.80;;
64678;SDS011;51094;53.864;27.676;2023-06-10T11:44:18;0.75;;;0.75;;
64678;SDS011;51094;53.864;27.676;2023-06-10T11:46:47;1.38;;;1.08;;
64678;SDS011;51094;53.864;27.676;2023-06-10T11:49:15;0.80;;;0.80;;
64678;SDS011;51094;53.864;27.676;2023-06-10T11:51:42;0.98;;;0.98;;
64678;SDS011;51094;53.864;27.676;2023-06-10T11:54:16;0.80;;;0.80;;
64678;SDS011;51094;53.864;27.676;2023-06-10T11:56:43;0.80;;;0.80;;
64678;SDS011;51094;53.864;27.676;2023-06-10T11:59:10;0.95;;;0.95;;
64678;SDS011;51094;53.864;27.676;2023-06-10T12:01:41;0.82;;;0.82;;
64678;SDS011;51094;53.864;27.676;2023-06-10T12:04:11;0.70;;;0.70;;
64678;SDS011;51094;53.864;27.676;2023-06-10T12:06:40;0.77;;;0.77;;
64678;SDS011;51094;53.864;27.676;2023-06-10T12:09:24;1.10;;;1.10;;
64678;SDS011;51094;53.864;27.676;2023-06-10T12:17:23;1.00;;;1.00;;
64678;SDS011;51094;53.864;27.676;2023-06-10T12:20:08;0.90;;;0.90;;
64678;SDS011;51094;53.864;27.676;2023-06-10T12:22:50;1.10;;;1.10;;
64678;SDS011;51094;53.864;27.676;2023-06-10T12:25:17;0.80;;;0.80;;
64678;SDS011;51094;53.864;27.676;2023-06-10T12:27:53;0.75;;;0.75;;
64678;SDS011;51094;53.864;27.676;2023-06-10T12:30:24;1.02;;;1.02;;
64678;SDS011;51094;53.864;27.676;2023-06-10T12:32:53;0.80;;;0.80;;
64678;SDS011;51094;53.864;27.676;2023-06-10T12:35:23;1.35;;;1.35;;
64678;SDS011;51094;53.864;27.676;2023-06-10T12:38:01;0.90;;;0.90;;
64678;SDS011;51094;53.864;27.676;2023-06-10T12:40:41;0.80;;;0.80;;
64678;SDS011;51094;53.864;27.676;2023-06-10T12:43:08;0.88;;;0.88;;
64678;SDS011;51094;53.864;27.676;2023-06-10T12:45:36;0.80;;;0.80;;
64678;SDS011;51094;53.864;27.676;2023-06-10T12:48:19;0.80;;;0.80;;
64678;SDS011;51094;53.864;27.676;2023-06-10T12:50:54;0.80;;;0.80;;
64678;SDS011;51094;53.864;27.676;2023-06-10T12:53:22;0.88;;;0.88;;
64678;SDS011;51094;53.864;27.676;2023-06-10T12:55:50;0.85;;;0.85;;
64678;SDS011;51094;53.864;27.676;2023-06-10T12:58:21;1.13;;;1.13;;
64678;SDS011;51094;53.864;27.676;2023-06-10T13:00:48;1.00;;;1.00;;
64678;SDS011;51094;53.864;27.676;2023-06-10T13:03:18;1.02;;;1.02;;
64678;SDS011;51094;53.864;27.676;2023-06-10T13:05:45;1.20;;;1.10;;
64678;SDS011;51094;53.864;27.676;2023-06-10T13:08:12;1.10;;;1.10;;
64678;SDS011;51094;53.864;27.676;2023-06-10T13:10:39;1.00;;;1.00;;
64678;SDS011;51094;53.864;27.676;2023-06-10T13:13:07;1.00;;;1.00;;
64678;SDS011;51094;53.864;27.676;2023-06-10T13:15:36;0.90;;;0.90;;
64678;SDS011;51094;53.864;27.676;2023-06-10T13:18:08;0.80;;;0.80;;
64678;SDS011;51094;53.864;27.676;2023-06-10T13:20:36;0.80;;;0.80;;
64678;SDS011;51094;53.864;27.676;2023-06-10T13:23:03;0.80;;;0.80;;
64678;SDS011;51094;53.864;27.676;2023-06-10T13:25:30;0.90;;;0.90;;
64678;SDS011;51094;53.864;27.676;2023-06-10T13:27:57;0.68;;;0.68;;
64678;SDS011;51094;53.864;27.676;2023-06-10T13:30:24;0.80;;;0.80;;
64678;SDS011;51094;53.864;27.676;2023-06-10T13:32:53;0.80;;;0.80;;
64678;SDS011;51094;53.864;27.676;2023-06-10T13:35:20;1.10;;;1.10;;
64678;SDS011;51094;53.864;27.676;2023-06-10T13:37:47;0.95;;;0.95;;
64678;SDS011;51094;53.864;27.676;2023-06-10T13:40:14;0.90;;;0.90;;
64678;SDS011;51094;53.864;27.676;2023-06-10T13:42:42;1.00;;;1.00;;
64678;SDS011;51094;53.864;27.676;2023-06-10T13:45:09;0.90;;;0.90;;
64678;SDS011;51094;53.864;27.676;2023-06-10T13:47:37;0.80;;;0.80;;
64678;SDS011;51094;53.864;27.676;2023-06-10T13:50:05;0.88;;;0.88;;
64678;SDS011;51094;53.864;27.676;2023-06-10T13:52:33;0.98;;;0.98;;
64678;SDS011;51094;53.864;27.676;2023-06-10T13:55:01;1.20;;;1.10;;
64678;SDS011;51094;53.864;27.676;2023-06-10T13:57:28;1.00;;;1.00;;
64678;SDS011;51094;53.864;27.676;2023-06-10T13:59:57;0.90;;;0.90;;
64678;SDS011;51094;53.864;27.676;2023-06-10T14:02:29;1.00;;;1.00;;
64678;SDS011;51094;53.864;27.676;2023-06-10T14:05:01;0.85;;;0.85;;
64678;SDS011;51094;53.864;27.676;2023-06-10T14:07:28;0.80;;;0.80;;
64678;SDS011;51094;53.864;27.676;2023-06-10T14:09:56;0.90;;;0.90;;
64678;SDS011;51094;53.864;27.676;2023-06-10T14:12:23;1.05;;;1.05;;
64678;SDS011;51094;53.864;27.676;2023-06-10T14:14:51;0.90;;;0.90;;
64678;SDS011;51094;53.864;27.676;2023-06-10T14:17:18;1.10;;;1.10;;
64678;SDS011;51094;53.864;27.676;2023-06-10T14:19:45;0.70;;;0.70;;
64678;SDS011;51094;53.864;27.676;2023-06-10T14:22:12;0.80;;;0.80;;
64678;SDS011;51094;53.864;27.676;2023-06-10T14:24:39;1.20;;;1.20;;
64678;SDS011;51094;53.864;27.676;2023-06-10T14:27:06;0.88;;;0.88;;
64678;SDS011;51094;53.864;27.676;2023-06-10T14:29:33;3.42;;;1.70;;
64678;SDS011;51094;53.864;27.676;2023-06-10T14:32:02;0.80;;;0.80;;
64678;SDS011;51094;53.864;27.676;2023-06-10T14:34:34;0.80;;;0.80;;
64678;SDS011;51094;53.864;27.676;2023-06-10T14:37:02;0.98;;;0.98;;
64678;SDS011;51094;53.864;27.676;2023-06-10T14:39:34;0.95;;;0.95;;
64678;SDS011;51094;53.864;27.676;2023-06-10T14:42:01;0.80;;;0.80;;
64678;SDS011;51094;53.864;27.676;2023-06-10T14:44:29;0.80;;;0.80;;
64678;SDS011;51094;53.864;27.676;2023-06-10T14:46:56;0.70;;;0.70;;
64678;SDS011;51094;53.864;27.676;2023-06-10T14:49:23;0.80;;;0.80;;
64678;SDS011;51094;53.864;27.676;2023-06-10T14:51:51;0.93;;;0.93;;
64678;SDS011;51094;53.864;27.676;2023-06-10T14:54:17;0.90;;;0.90;;
64678;SDS011;51094;53.864;27.676;2023-06-10T14:56:44;0.93;;;0.93;;
64678;SDS011;51094;53.864;27.676;2023-06-10T14:59:11;0.80;;;0.80;;
64678;SDS011;51094;53.864;27.676;2023-06-10T15:01:38;0.75;;;0.75;;
64678;SDS011;51094;53.864;27.676;2023-06-10T15:04:06;1.00;;;1.00;;
64678;SDS011;51094;53.864;27.676;2023-06-10T15:06:33;0.80;;;0.80;;
64678;SDS011;51094;53.864;27.676;2023-06-10T15:08:59;0.80;;;0.80;;
64678;SDS011;51094;53.864;27.676;2023-06-10T15:11:26;0.90;;;0.90;;